Time;durP1;ratioP1;P1;durP2;ratioP2;P2;SDS_P1;SDS_P2;PMS_P1;PMS_P2;Temp;Humidity;BMP_temperature;BMP_pressure;BME280_temperature;BME280_humidity;BME280_pressure;Samples;Min_cycle;Max_cycle;Signal;HPM_P1;HPM_P2
2022/05/03 00:01:42;;;;;;;0.32;0.32;;;3.20;91.70;;;;;;4992909;28;20107;-74
2022/05/03 00:04:20;;;;;;;0.43;0.43;;;3.20;91.70;;;;;;4992654;28;20474;-74
2022/05/03 00:06:54;;;;;;;2.83;0.38;;;3.10;91.50;;;;;;4992484;28;20033;-74
2022/05/03 00:09:31;;;;;;;0.40;0.40;;;3.10;91.40;;;;;;4992694;28;20022;-74
2022/05/03 00:12:08;;;;;;;0.40;0.40;;;3.20;91.50;;;;;;4992467;28;20701;-74
2022/05/03 00:14:48;;;;;;;0.30;0.30;;;3.10;91.30;;;;;;4992430;28;20034;-74
2022/05/03 00:17:15;;;;;;;0.30;0.30;;;3.10;91.20;;;;;;4992512;28;20109;-74
2022/05/03 00:19:43;;;;;;;1.33;0.40;;;3.10;90.80;;;;;;4992447;28;20038;-74
2022/05/03 00:22:11;;;;;;;0.50;0.50;;;3.10;90.20;;;;;;4992322;28;20023;-73
2022/05/03 00:24:37;;;;;;;0.47;0.43;;;3.10;90.10;;;;;;4992579;28;20034;-72
2022/05/03 00:27:03;;;;;;;0.50;0.50;;;3.10;90.00;;;;;;4992292;28;20022;-72
2022/05/03 00:29:29;;;;;;;0.50;0.50;;;3.00;89.10;;;;;;4992822;28;20182;-72
2022/05/03 00:31:56;;;;;;;0.40;0.40;;;3.00;88.10;;;;;;4992414;28;20027;-72
2022/05/03 00:34:22;;;;;;;0.60;0.60;;;3.10;87.10;;;;;;4991144;28;20033;-72
2022/05/03 00:36:48;;;;;;;0.30;0.30;;;3.10;86.90;;;;;;4992351;28;20034;-72
2022/05/03 00:39:14;;;;;;;0.82;0.50;;;3.00;86.30;;;;;;4992200;28;20193;-72
2022/05/03 00:41:55;;;;;;;0.40;0.40;;;3.00;85.60;;;;;;4992513;28;20030;-72
2022/05/03 00:44:55;;;;;;;0.50;0.50;;;3.00;83.70;;;;;;4992322;28;20030;-72
2022/05/03 00:47:35;;;;;;;0.50;0.50;;;3.00;83.80;;;;;;4991351;28;20556;-73
2022/05/03 00:50:11;;;;;;;0.40;0.40;;;3.00;83.20;;;;;;4994833;28;20363;-73
2022/05/03 00:53:28;;;;;;;0.40;0.40;;;3.00;82.60;;;;;;4996336;28;20031;-74
2022/05/03 00:56:18;;;;;;;0.50;0.50;;;3.00;82.40;;;;;;4938121;28;20077;-75
2022/05/03 00:59:09;;;;;;;0.45;0.45;;;3.00;82.30;;;;;;4996281;28;20114;-75
2022/05/03 01:01:47;;;;;;;0.40;0.40;;;2.90;82.50;;;;;;4995970;28;20019;-74
2022/05/03 01:04:49;;;;;;;0.50;0.50;;;3.00;82.10;;;;;;4996211;28;20039;-75
2022/05/03 01:07:23;;;;;;;0.65;0.50;;;2.90;81.20;;;;;;4955004;28;20050;-75
2022/05/03 01:10:05;;;;;;;0.70;0.40;;;2.90;81.00;;;;;;4995959;28;20030;-75
2022/05/03 01:13:06;;;;;;;0.47;0.47;;;2.90;79.80;;;;;;4995836;28;20030;-71
2022/05/03 01:15:34;;;;;;;0.40;0.40;;;2.90;79.90;;;;;;4990109;28;20077;-71
2022/05/03 01:18:02;;;;;;;1.85;0.45;;;2.80;79.50;;;;;;4995402;28;20022;-71
2022/05/03 01:20:57;;;;;;;0.40;0.40;;;2.80;79.80;;;;;;4995873;28;20093;-72
2022/05/03 01:24:03;;;;;;;0.40;0.40;;;2.80;79.60;;;;;;4961766;28;20162;-72
2022/05/03 01:27:06;;;;;;;0.50;0.50;;;2.90;79.90;;;;;;4995722;28;20053;-72
2022/05/03 01:29:35;;;;;;;0.50;0.50;;;2.90;80.20;;;;;;4995734;28;20026;-72
2022/05/03 01:32:12;;;;;;;0.40;0.40;;;2.90;80.40;;;;;;4995317;28;20109;-72
2022/05/03 01:34:38;;;;;;;1.00;0.50;;;2.90;80.60;;;;;;4995229;28;20046;-72
2022/05/03 01:37:30;;;;;;;0.57;0.57;;;2.90;80.90;;;;;;4995169;28;20042;-72
2022/05/03 01:40:11;;;;;;;0.40;0.40;;;2.90;81.30;;;;;;4994975;28;20035;-72
2022/05/03 01:42:53;;;;;;;0.45;0.45;;;2.80;81.70;;;;;;4995187;28;20477;-72
2022/05/03 01:45:41;;;;;;;0.63;0.60;;;2.80;82.70;;;;;;4995427;28;20026;-72
2022/05/03 01:51:24;;;;;;;0.50;0.50;;;2.80;83.60;;;;;;4983440;28;20505;-72
2022/05/03 01:54:12;;;;;;;0.70;0.60;;;2.80;84.00;;;;;;4977220;28;20027;-72
2022/05/03 01:57:22;;;;;;;0.50;0.50;;;2.80;84.60;;;;;;4975375;28;20035;-72
2022/05/03 02:00:01;;;;;;;1.10;0.70;;;2.70;85.30;;;;;;4955755;28;20042;-72
2022/05/03 02:02:50;;;;;;;1.85;0.60;;;2.80;86.10;;;;;;4975404;28;20062;-72
2022/05/03 02:05:51;;;;;;;0.50;0.50;;;2.80;87.50;;;;;;4974045;28;20019;-73
2022/05/03 02:08:23;;;;;;;0.70;0.60;;;2.70;88.20;;;;;;4975446;28;20027;-74
2022/05/03 02:11:02;;;;;;;0.63;0.45;;;2.70;89.30;;;;;;4975249;28;20073;-75
2022/05/03 02:14:44;;;;;;;3.97;0.70;;;2.70;90.10;;;;;;4975456;28;20061;-75
2022/05/03 02:16:30;;;;;;;0.52;0.52;;;2.60;90.00;;;;;;4974799;28;20438;-75
2022/05/03 02:19:14;;;;;;;0.50;0.50;;;2.60;90.50;;;;;;4975226;28;20027;-75
2022/05/03 02:22:19;;;;;;;0.60;0.60;;;2.60;90.60;;;;;;4975322;28;20037;-75
2022/05/03 02:53:55;;;;;;;0.63;0.63;;;2.60;92.40;;;;;;4982123;28;20046;-75
2022/05/03 02:56:36;;;;;;;4.05;0.90;;;2.60;92.10;;;;;;4975119;28;20077;-76
2022/05/03 02:59:15;;;;;;;0.60;0.60;;;2.50;91.60;;;;;;4974205;28;20606;-76
2022/05/03 03:02:13;;;;;;;3.10;0.70;;;2.60;91.30;;;;;;4974355;28;20113;-76
2022/05/03 03:38:24;;;;;;;0.70;0.70;;;2.60;78.70;;;;;;5484690;23;20090;-78
2022/05/03 03:40:49;;;;;;;1.00;0.73;;;2.60;77.70;;;;;;4973552;28;20102;-78
2022/05/03 03:43:16;;;;;;;0.60;0.60;;;2.60;77.60;;;;;;4973232;28;20094;-78
2022/05/03 03:45:42;;;;;;;1.73;0.60;;;2.50;77.00;;;;;;4973244;28;20477;-78
2022/05/03 03:48:08;;;;;;;0.88;0.60;;;2.50;77.20;;;;;;4973182;28;20038;-77
2022/05/03 03:50:37;;;;;;;0.85;0.70;;;2.50;78.00;;;;;;4973301;28;20023;-78
2022/05/03 03:53:03;;;;;;;1.40;0.60;;;2.50;78.00;;;;;;4973623;28;20114;-75
2022/05/03 03:55:29;;;;;;;0.60;0.60;;;2.50;78.00;;;;;;4973192;28;20034;-75
2022/05/03 03:57:56;;;;;;;0.98;0.60;;;2.50;78.50;;;;;;4973133;28;20026;-76
2022/05/03 04:00:23;;;;;;;0.70;0.50;;;2.50;78.40;;;;;;4973535;28;20030;-77
2022/05/03 04:02:49;;;;;;;2.10;0.70;;;2.50;78.80;;;;;;4973056;28;20037;-76
2022/05/03 04:05:18;;;;;;;2.05;0.65;;;2.50;78.80;;;;;;4973234;28;20390;-77
2022/05/03 04:07:44;;;;;;;0.50;0.50;;;2.50;79.30;;;;;;4973101;28;20062;-77
2022/05/03 04:10:10;;;;;;;1.13;0.60;;;2.50;79.70;;;;;;4973288;28;20050;-76
2022/05/03 04:12:36;;;;;;;0.60;0.60;;;2.50;80.50;;;;;;4973094;28;20023;-75
2022/05/03 04:15:03;;;;;;;1.25;0.60;;;2.50;80.90;;;;;;4973134;28;20126;-76
2022/05/03 04:17:28;;;;;;;1.67;0.70;;;2.50;81.10;;;;;;4973098;28;20034;-77
2022/05/03 04:19:54;;;;;;;2.60;0.80;;;2.50;81.10;;;;;;4973061;28;20031;-74
2022/05/03 04:22:24;;;;;;;3.92;0.50;;;2.60;81.30;;;;;;4974675;28;20502;-75
2022/05/03 04:24:50;;;;;;;0.65;0.65;;;2.60;81.10;;;;;;4979291;28;20113;-75
2022/05/03 04:27:16;;;;;;;3.63;0.82;;;2.70;80.90;;;;;;4979511;28;20033;-76
2022/05/03 04:29:41;;;;;;;0.93;0.60;;;2.90;80.80;;;;;;4979328;28;20023;-74
2022/05/03 04:32:08;;;;;;;1.05;0.60;;;3.30;78.60;;;;;;4979462;28;20038;-71
2022/05/03 04:34:33;;;;;;;1.52;0.50;;;3.60;76.40;;;;;;4979509;28;20101;-68
2022/05/03 04:36:59;;;;;;;1.13;0.60;;;4.00;75.10;;;;;;4979015;28;20418;-72
2022/05/03 04:39:25;;;;;;;1.30;0.60;;;4.40;73.90;;;;;;4958669;29;20053;-70
2022/05/03 04:41:51;;;;;;;1.42;0.70;;;5.30;85.40;;;;;;4959863;28;20593;-73
2022/05/03 04:44:16;;;;;;;0.65;0.60;;;5.80;71.50;;;;;;4959922;28;20122;-72
2022/05/03 04:46:42;;;;;;;2.13;0.60;;;6.10;70.00;;;;;;4959508;28;20038;-69
2022/05/03 04:49:07;;;;;;;3.35;0.85;;;6.40;67.70;;;;;;4977285;28;20042;-72
2022/05/03 04:51:33;;;;;;;1.00;0.60;;;6.30;66.40;;;;;;4975751;28;20033;-71
2022/05/03 04:53:59;;;;;;;0.52;0.50;;;6.40;65.30;;;;;;4972269;28;20532;-72
2022/05/03 04:56:25;;;;;;;0.60;0.50;;;6.70;65.20;;;;;;4975358;28;20041;-68
2022/05/03 04:58:55;;;;;;;0.50;0.50;;;6.90;64.00;;;;;;4975303;28;20433;-66
2022/05/03 05:01:22;;;;;;;0.65;0.50;;;7.30;62.90;;;;;;4977221;28;20035;-67
2022/05/03 05:03:48;;;;;;;1.58;0.68;;;7.50;61.00;;;;;;4975259;28;20065;-67
2022/05/03 05:06:13;;;;;;;2.33;0.70;;;7.60;59.60;;;;;;4975061;28;20115;-67
2022/05/03 05:08:41;;;;;;;0.63;0.50;;;7.50;58.80;;;;;;4974809;28;20638;-66
2022/05/03 05:11:07;;;;;;;0.52;0.50;;;7.40;58.70;;;;;;4978234;28;20030;-69
2022/05/03 05:13:34;;;;;;;2.55;0.60;;;7.20;58.00;;;;;;4978905;28;20114;-69
2022/05/03 05:16:00;;;;;;;0.93;0.40;;;7.00;58.30;;;;;;4979057;28;20049;-69
2022/05/03 05:18:27;;;;;;;0.93;0.50;;;6.70;58.90;;;;;;4979132;28;20026;-69
2022/05/03 05:20:53;;;;;;;0.57;0.52;;;6.70;58.60;;;;;;4978670;28;20081;-69
2022/05/03 05:23:19;;;;;;;5.25;0.63;;;6.40;58.20;;;;;;4979104;28;20337;-69
2022/05/03 05:25:47;;;;;;;1.30;0.60;;;6.10;58.50;;;;;;4978771;28;20026;-69
2022/05/03 05:28:14;;;;;;;2.22;0.60;;;5.80;59.10;;;;;;4978767;28;20382;-71
2022/05/03 05:30:40;;;;;;;0.45;0.45;;;5.70;59.80;;;;;;4978504;28;20030;-68
2022/05/03 05:33:06;;;;;;;1.40;0.70;;;5.60;60.10;;;;;;4973835;28;20038;-67
2022/05/03 05:35:32;;;;;;;1.67;0.57;;;5.30;59.80;;;;;;4976049;28;20046;-68
2022/05/03 05:37:58;;;;;;;1.20;0.80;;;5.10;60.30;;;;;;4975576;28;20177;-67
2022/05/03 05:40:23;;;;;;;1.08;0.50;;;5.30;60.10;;;;;;4975805;28;20105;-68
2022/05/03 05:42:49;;;;;;;1.75;0.50;;;5.60;59.90;;;;;;4968538;28;20067;-68
2022/05/03 05:45:16;;;;;;;3.38;0.60;;;5.60;58.70;;;;;;4963888;28;20498;-69
2022/05/03 05:47:42;;;;;;;0.55;0.50;;;5.60;57.10;;;;;;4956186;29;20478;-70
2022/05/03 05:50:10;;;;;;;1.75;0.60;;;5.80;56.40;;;;;;4966831;28;20393;-68
2022/05/03 05:53:36;;;;;;;21.02;1.95;;;6.20;56.00;;;;;;4974445;28;20019;-69
2022/05/03 05:55:30;;;;;;;1.98;0.52;;;6.70;54.90;;;;;;4957426;28;20089;-70
2022/05/03 05:57:56;;;;;;;3.50;0.50;;;7.20;55.20;;;;;;4969422;28;20386;-69
2022/05/03 06:00:22;;;;;;;0.77;0.60;;;7.50;54.90;;;;;;4966064;28;20023;-69
2022/05/03 06:02:47;;;;;;;0.50;0.50;;;7.80;54.10;;;;;;4967705;28;20048;-69
2022/05/03 06:05:13;;;;;;;0.80;0.50;;;7.90;53.10;;;;;;4974521;28;20023;-70
2022/05/03 06:07:39;;;;;;;1.42;0.80;;;8.00;52.10;;;;;;4974419;28;20019;-69
2022/05/03 06:10:05;;;;;;;3.20;0.65;;;8.40;52.50;;;;;;4941244;28;20026;-69
2022/05/03 06:12:31;;;;;;;0.47;0.47;;;8.40;50.90;;;;;;4974526;28;20046;-69
2022/05/03 06:14:57;;;;;;;0.85;0.45;;;8.10;50.80;;;;;;4974354;28;20078;-69
2022/05/03 06:17:22;;;;;;;2.38;0.82;;;7.70;50.20;;;;;;4974320;28;20073;-70
2022/05/03 06:19:49;;;;;;;0.50;0.50;;;7.40;49.90;;;;;;4974341;28;20512;-71
2022/05/03 06:22:15;;;;;;;3.53;0.68;;;7.20;50.60;;;;;;4967987;28;20034;-71
2022/05/03 06:24:40;;;;;;;1.17;0.55;;;6.90;49.30;;;;;;4966323;28;20122;-69
2022/05/03 06:27:06;;;;;;;2.08;0.68;;;6.70;50.60;;;;;;4973812;28;20030;-70
2022/05/03 06:29:32;;;;;;;0.85;0.50;;;6.90;51.20;;;;;;4974188;28;20026;-70
2022/05/03 06:31:59;;;;;;;1.15;0.70;;;7.10;50.30;;;;;;4973875;28;20023;-71
2022/05/03 06:34:25;;;;;;;2.33;1.08;;;7.20;49.50;;;;;;4973734;28;20652;-72
2022/05/03 06:36:51;;;;;;;1.35;0.68;;;7.10;49.30;;;;;;4973296;28;20039;-70
2022/05/03 06:39:17;;;;;;;0.60;0.52;;;6.90;49.10;;;;;;4973673;28;20056;-70
2022/05/03 06:41:43;;;;;;;1.20;0.60;;;6.50;49.50;;;;;;4973885;28;20102;-71
2022/05/03 06:44:08;;;;;;;1.45;0.70;;;6.20;49.70;;;;;;4973765;28;20030;-69
2022/05/03 06:46:34;;;;;;;0.80;0.50;;;5.90;49.80;;;;;;4970205;28;20035;-70
2022/05/03 06:49:00;;;;;;;1.35;0.52;;;5.80;50.50;;;;;;4969155;28;20066;-73
2022/05/03 06:51:26;;;;;;;0.77;0.38;;;5.70;50.40;;;;;;4953427;28;20022;-71
2022/05/03 06:53:52;;;;;;;2.33;0.93;;;5.80;50.90;;;;;;4969874;28;20031;-70
2022/05/03 06:56:18;;;;;;;0.50;0.50;;;5.80;50.80;;;;;;4965425;28;20039;-71
2022/05/03 06:58:44;;;;;;;1.50;0.77;;;5.80;50.30;;;;;;4966163;28;20030;-71
2022/05/03 07:01:14;;;;;;;1.20;0.60;;;5.70;50.60;;;;;;4973599;28;20390;-73
2022/05/03 07:03:41;;;;;;;0.70;0.60;;;5.60;50.50;;;;;;4940711;28;20023;-73
2022/05/03 07:06:07;;;;;;;2.90;0.40;;;5.50;50.70;;;;;;4973707;28;20027;-69
2022/05/03 07:08:34;;;;;;;0.77;0.55;;;5.50;51.20;;;;;;4973149;28;20030;-72
2022/05/03 07:11:00;;;;;;;0.43;0.43;;;5.60;50.60;;;;;;4973284;28;20031;-75
2022/05/03 07:13:26;;;;;;;0.60;0.45;;;5.80;50.20;;;;;;4973384;28;20042;-70
2022/05/03 07:15:53;;;;;;;2.17;0.60;;;5.80;49.80;;;;;;4973310;28;20030;-68
2022/05/03 07:23:47;;;;;;;3.40;0.70;;;5.80;54.60;;;;;;4964080;28;20536;-66
2022/05/03 07:26:13;;;;;;;2.03;0.70;;;6.20;62.90;;;;;;4972366;28;20023;-70
2022/05/03 07:28:39;;;;;;;4.65;0.60;;;7.00;54.70;;;;;;4954551;28;20027;-68
2022/05/03 07:31:05;;;;;;;1.65;0.70;;;7.20;52.40;;;;;;4972518;28;20053;-68
2022/05/03 07:33:31;;;;;;;0.60;0.50;;;7.10;50.30;;;;;;4973426;28;20026;-74
2022/05/03 07:35:57;;;;;;;1.92;0.50;;;7.20;50.90;;;;;;4973953;28;20117;-77
2022/05/03 07:38:23;;;;;;;0.55;0.43;;;7.20;50.00;;;;;;4974720;28;20047;-78
2022/05/03 07:40:48;;;;;;;0.30;0.30;;;7.10;49.60;;;;;;4972968;28;20031;-72
2022/05/03 07:43:14;;;;;;;0.52;0.50;;;7.10;50.50;;;;;;4957898;28;20027;-70
2022/05/03 07:45:40;;;;;;;0.50;0.50;;;7.50;51.60;;;;;;4956621;28;20402;-70
2022/05/03 07:48:06;;;;;;;0.75;0.50;;;7.00;48.00;;;;;;4973390;28;20035;-70
2022/05/03 07:50:32;;;;;;;2.33;0.73;;;6.60;49.30;;;;;;4973502;28;20058;-70
2022/05/03 07:52:58;;;;;;;0.52;0.45;;;6.40;50.40;;;;;;4973339;28;20102;-70
2022/05/03 07:55:23;;;;;;;0.43;0.40;;;6.20;49.00;;;;;;4972972;28;20474;-70
2022/05/03 07:57:49;;;;;;;0.88;0.63;;;6.10;49.50;;;;;;4971874;28;20035;-70
2022/05/03 08:00:15;;;;;;;1.23;0.60;;;6.10;49.40;;;;;;4973004;28;20081;-70
2022/05/03 08:02:41;;;;;;;0.40;0.40;;;6.00;49.10;;;;;;4972718;28;20037;-69
2022/05/03 08:05:08;;;;;;;1.25;0.68;;;5.90;48.80;;;;;;4972645;28;20031;-69
2022/05/03 08:07:35;;;;;;;0.95;0.70;;;6.00;49.40;;;;;;4973009;28;20042;-69
2022/05/03 08:10:01;;;;;;;1.23;0.47;;;6.00;49.50;;;;;;4955471;28;20027;-69
2022/05/03 08:12:27;;;;;;;1.30;0.40;;;6.00;49.30;;;;;;4947698;29;20118;-69
2022/05/03 08:14:53;;;;;;;0.40;0.40;;;5.90;48.90;;;;;;4953443;29;20119;-69
2022/05/03 08:17:19;;;;;;;0.60;0.60;;;5.80;49.30;;;;;;4953669;29;20439;-69
2022/05/03 08:19:45;;;;;;;0.73;0.50;;;6.00;50.00;;;;;;4953741;29;20030;-69
2022/05/03 08:22:11;;;;;;;1.20;0.43;;;6.00;50.00;;;;;;4953544;28;20039;-69
2022/05/03 08:24:37;;;;;;;0.63;0.38;;;6.00;49.80;;;;;;4954053;29;20054;-69
2022/05/03 08:27:03;;;;;;;0.73;0.60;;;6.10;49.70;;;;;;4954010;29;20579;-69
2022/05/03 08:29:31;;;;;;;0.40;0.40;;;5.90;48.70;;;;;;4936476;29;20522;-69
2022/05/03 08:31:58;;;;;;;0.82;0.50;;;5.80;49.30;;;;;;4953475;28;20032;-69
2022/05/03 08:34:24;;;;;;;0.40;0.40;;;5.70;48.80;;;;;;4972112;28;20046;-69
2022/05/03 08:42:18;;;;;;;0.50;0.50;;;5.70;47.00;;;;;;4973100;28;20038;-69
2022/05/03 08:44:44;;;;;;;0.90;0.50;;;5.60;47.10;;;;;;4972749;28;20031;-69
2022/05/03 08:47:10;;;;;;;1.58;0.70;;;5.70;47.90;;;;;;4972714;28;20027;-69
2022/05/03 08:49:42;;;;;;;0.40;0.40;;;5.70;47.60;;;;;;4955494;28;20027;-69
2022/05/03 08:52:10;;;;;;;0.50;0.50;;;5.80;48.40;;;;;;4973228;28;20035;-70
2022/05/03 08:54:37;;;;;;;0.73;0.43;;;5.80;48.10;;;;;;4972462;28;20043;-70
2022/05/03 08:57:07;;;;;;;3.47;0.70;;;5.90;48.00;;;;;;4972509;28;20490;-70
2022/05/03 08:59:34;;;;;;;3.97;0.60;;;6.00;47.60;;;;;;4955782;28;20043;-70
2022/05/03 09:02:00;;;;;;;0.57;0.40;;;6.10;48.10;;;;;;4972699;28;20035;-71
2022/05/03 09:04:26;;;;;;;0.90;0.50;;;6.20;47.80;;;;;;4972643;28;20034;-71
2022/05/03 09:06:52;;;;;;;0.60;0.40;;;6.20;48.40;;;;;;4972599;28;20597;-71
2022/05/03 09:09:21;;;;;;;1.13;0.50;;;6.20;48.00;;;;;;4974566;28;20451;-71
2022/05/03 09:11:49;;;;;;;3.65;0.80;;;6.10;47.70;;;;;;4975955;28;20042;-70
2022/05/03 09:14:38;;;;;;;1.90;0.40;;;6.00;47.60;;;;;;4956491;29;20027;-71
2022/05/03 09:17:05;;;;;;;0.32;0.32;;;5.80;47.60;;;;;;4956604;29;20016;-71
2022/05/03 09:19:31;;;;;;;0.40;0.40;;;5.70;48.30;;;;;;4956779;29;20039;-70
2022/05/03 09:24:55;;;;;;;1.27;0.60;;;5.70;48.40;;;;;;4956687;29;20082;-71
2022/05/03 09:27:23;;;;;;;0.40;0.40;;;5.80;48.50;;;;;;4956605;29;20043;-70
2022/05/03 09:30:02;;;;;;;0.63;0.50;;;5.90;49.70;;;;;;4955899;29;20024;-70
2022/05/03 09:32:41;;;;;;;1.27;0.50;;;5.90;48.10;;;;;;4956269;29;20027;-71
2022/05/03 09:35:41;;;;;;;0.40;0.40;;;5.90;48.30;;;;;;4956158;29;20046;-71
2022/05/03 09:38:06;;;;;;;0.40;0.40;;;5.80;47.30;;;;;;4957949;28;20146;-70
2022/05/03 09:40:51;;;;;;;0.52;0.40;;;5.80;48.70;;;;;;4956570;29;20023;-70
2022/05/03 09:43:16;;;;;;;0.50;0.50;;;6.00;48.80;;;;;;4956519;29;20031;-71
2022/05/03 09:45:42;;;;;;;4.38;0.60;;;6.00;48.60;;;;;;4956466;29;20038;-71
2022/05/03 09:48:08;;;;;;;1.98;0.95;;;6.00;47.20;;;;;;4943194;29;20387;-70
2022/05/03 09:50:42;;;;;;;0.30;0.30;;;5.90;47.70;;;;;;4956326;29;20350;-71
2022/05/03 09:53:17;;;;;;;0.95;0.55;;;5.80;47.50;;;;;;4956263;29;20532;-71
2022/05/03 09:55:45;;;;;;;2.28;0.95;;;5.70;48.20;;;;;;4956181;29;20039;-71
2022/05/03 09:58:13;;;;;;;0.55;0.50;;;5.60;48.60;;;;;;4956027;28;20023;-71
2022/05/03 10:00:40;;;;;;;3.63;0.57;;;5.60;48.80;;;;;;4956263;29;20367;-71
2022/05/03 10:03:09;;;;;;;0.52;0.52;;;5.80;51.10;;;;;;4967008;28;20018;-77
2022/05/03 10:05:36;;;;;;;1.85;0.50;;;6.00;49.60;;;;;;4974592;28;20027;-74
2022/05/03 10:08:03;;;;;;;2.92;0.47;;;6.10;48.10;;;;;;4974311;28;20478;-75
2022/05/03 10:10:29;;;;;;;0.40;0.40;;;6.10;48.40;;;;;;4977932;28;20038;-73
2022/05/03 10:12:55;;;;;;;0.40;0.40;;;6.10;47.60;;;;;;4974130;28;20027;-73
2022/05/03 10:21:14;;;;;;;0.95;0.45;;;6.10;48.00;;;;;;4971482;28;20033;-72
2022/05/03 10:23:39;;;;;;;0.40;0.40;;;6.20;47.80;;;;;;4954896;28;20073;-72
2022/05/03 10:26:09;;;;;;;0.45;0.45;;;6.20;48.00;;;;;;4954676;28;20479;-72
2022/05/03 10:28:56;;;;;;;0.57;0.53;;;6.10;47.60;;;;;;4969460;28;20031;-72
2022/05/03 10:31:22;;;;;;;0.40;0.40;;;6.10;47.60;;;;;;4964199;28;20427;-75
2022/05/03 10:33:48;;;;;;;0.50;0.50;;;6.10;47.80;;;;;;4955495;28;20028;-69
2022/05/03 10:36:32;;;;;;;0.50;0.50;;;6.20;47.90;;;;;;4970356;28;20117;-69
2022/05/03 10:39:16;;;;;;;0.43;0.43;;;6.30;48.00;;;;;;4973092;28;20058;-68
2022/05/03 10:42:10;;;;;;;1.02;0.40;;;6.30;47.40;;;;;;4973764;28;20035;-69
2022/05/03 10:44:41;;;;;;;0.50;0.50;;;6.40;47.60;;;;;;4973466;28;20030;-69
2022/05/03 10:47:07;;;;;;;0.80;0.57;;;6.50;48.10;;;;;;4973652;28;20031;-69
2022/05/03 10:49:33;;;;;;;1.20;0.50;;;6.50;48.10;;;;;;4973930;28;20015;-68
2022/05/03 10:51:58;;;;;;;2.05;0.47;;;6.50;48.40;;;;;;4973630;28;20126;-69
2022/05/03 10:54:24;;;;;;;11.38;1.02;;;6.60;48.90;;;;;;4973352;28;20046;-69
2022/05/03 10:57:08;;;;;;;0.80;0.50;;;6.60;49.00;;;;;;4973713;28;20038;-69
2022/05/03 10:59:47;;;;;;;10.65;0.93;;;6.70;48.70;;;;;;4973657;28;20031;-69
2022/05/03 11:02:13;;;;;;;1.27;0.60;;;6.70;49.10;;;;;;4968051;28;20118;-69
2022/05/03 11:05:14;;;;;;;2.75;0.60;;;6.80;49.30;;;;;;4951513;28;20110;-69
2022/05/03 11:07:40;;;;;;;4.63;0.50;;;6.90;49.80;;;;;;4970306;28;20015;-80
2022/05/03 11:10:39;;;;;;;2.20;0.70;;;7.00;49.90;;;;;;4972973;28;20035;-75
2022/05/03 11:13:05;;;;;;;9.52;0.75;;;7.00;48.90;;;;;;4973427;28;20030;-71
2022/05/03 11:15:31;;;;;;;0.47;0.40;;;7.00;49.30;;;;;;4973395;28;20082;-71
2022/05/03 11:17:57;;;;;;;17.65;1.40;;;6.90;48.90;;;;;;4973229;28;20054;-70
2022/05/03 11:20:23;;;;;;;0.60;0.40;;;6.90;49.20;;;;;;4973379;28;20030;-70
2022/05/03 11:22:49;;;;;;;3.47;0.40;;;7.00;49.20;;;;;;4973030;28;20034;-70
2022/05/03 11:25:15;;;;;;;1.38;0.50;;;7.10;48.80;;;;;;4972847;28;20509;-70
2022/05/03 11:27:43;;;;;;;0.40;0.40;;;7.10;49.20;;;;;;4973198;28;20027;-69
2022/05/03 11:30:11;;;;;;;1.52;0.50;;;7.20;49.10;;;;;;4973104;28;20029;-69
2022/05/03 11:32:41;;;;;;;1.27;0.50;;;7.10;48.00;;;;;;4973092;28;20035;-69
2022/05/03 11:35:16;;;;;;;0.73;0.55;;;7.20;48.00;;;;;;4972503;28;20062;-69
2022/05/03 11:37:52;;;;;;;1.10;0.60;;;7.20;47.70;;;;;;4968229;28;20046;-69
2022/05/03 11:40:21;;;;;;;0.40;0.40;;;7.10;47.60;;;;;;4973164;28;20046;-70
2022/05/03 11:42:47;;;;;;;1.45;0.60;;;7.00;47.90;;;;;;4973070;28;20027;-69
2022/05/03 11:45:14;;;;;;;0.88;0.50;;;7.00;48.20;;;;;;4972452;28;20034;-69
2022/05/03 11:47:46;;;;;;;1.13;0.50;;;7.00;48.30;;;;;;4973121;28;20077;-69
2022/05/03 11:55:58;;;;;;;3.20;0.50;;;7.00;48.50;;;;;;4972297;28;20055;-69
2022/05/03 11:56:00;;;;;;;0.40;0.40;;;7.00;49.20;;;;;;4964335;28;20074;-68
2022/05/03 11:58:28;;;;;;;4.32;0.55;;;7.20;54.60;;;;;;4967116;28;20023;-69
2022/05/03 12:00:54;;;;;;;4.88;0.50;;;7.80;51.80;;;;;;4962490;28;20026;-69
2022/05/03 12:03:19;;;;;;;3.83;0.68;;;7.60;48.40;;;;;;4964531;28;20030;-70
2022/05/03 12:06:04;;;;;;;1.70;0.43;;;7.40;48.20;;;;;;4970541;28;20030;-71
2022/05/03 12:08:30;;;;;;;0.73;0.50;;;7.30;48.40;;;;;;4962666;28;20046;-68
2022/05/03 12:10:57;;;;;;;11.35;0.68;;;7.30;48.70;;;;;;4968103;28;20034;-69
2022/05/03 12:13:22;;;;;;;2.28;0.40;;;7.20;48.20;;;;;;4972001;28;20471;-69
2022/05/03 12:15:57;;;;;;;0.90;0.50;;;7.10;48.70;;;;;;4966687;28;20121;-69
2022/05/03 12:18:48;;;;;;;1.50;0.60;;;7.10;48.70;;;;;;4961839;28;20030;-69
2022/05/03 12:21:22;;;;;;;0.63;0.50;;;7.00;48.60;;;;;;4963486;28;20023;-69
2022/05/03 12:23:49;;;;;;;2.35;1.00;;;7.00;49.10;;;;;;4966068;28;20031;-68
2022/05/03 12:26:20;;;;;;;6.85;0.82;;;7.00;49.00;;;;;;4970354;28;20522;-68
2022/05/03 12:28:52;;;;;;;0.30;0.30;;;7.10;49.30;;;;;;4964188;28;20027;-69
2022/05/03 12:31:19;;;;;;;0.43;0.40;;;7.10;49.10;;;;;;4969761;28;20114;-68
2022/05/03 12:33:50;;;;;;;0.43;0.40;;;7.10;49.00;;;;;;4972092;28;20037;-68
2022/05/03 12:36:31;;;;;;;1.02;0.60;;;7.10;48.40;;;;;;4970938;28;20089;-68
2022/05/03 12:38:57;;;;;;;1.30;0.45;;;7.10;48.30;;;;;;4971724;28;20054;-72
2022/05/03 12:41:31;;;;;;;0.63;0.40;;;7.10;48.60;;;;;;4972236;28;20050;-71
2022/05/03 12:44:11;;;;;;;6.40;0.50;;;7.10;48.10;;;;;;4953370;28;20031;-71
2022/05/03 12:46:38;;;;;;;0.40;0.40;;;7.10;49.90;;;;;;4972936;28;20042;-67
2022/05/03 12:49:06;;;;;;;3.45;0.70;;;7.60;56.40;;;;;;4974106;28;20031;-68
2022/05/03 12:51:34;;;;;;;4.28;0.60;;;8.10;52.50;;;;;;4976318;28;20031;-67
2022/05/03 12:54:04;;;;;;;1.13;0.52;;;8.00;48.90;;;;;;4972820;28;20509;-68
2022/05/03 12:59:15;;;;;;;0.77;0.32;;;7.90;48.30;;;;;;4971367;28;20026;-67
2022/05/03 13:01:41;;;;;;;0.65;0.40;;;7.90;48.10;;;;;;4976196;28;20027;-68
2022/05/03 13:04:09;;;;;;;0.38;0.38;;;8.00;47.50;;;;;;4975963;28;20031;-68
2022/05/03 13:06:35;;;;;;;1.75;0.50;;;8.00;47.80;;;;;;4975763;28;20508;-68
2022/05/03 13:09:00;;;;;;;0.45;0.40;;;7.80;47.10;;;;;;4960107;28;20085;-71
2022/05/03 13:11:26;;;;;;;0.55;0.40;;;7.80;47.50;;;;;;4958494;28;20027;-71
2022/05/03 13:13:52;;;;;;;0.80;0.60;;;7.70;47.40;;;;;;4964815;28;20019;-71
2022/05/03 13:16:18;;;;;;;1.13;0.40;;;7.80;47.80;;;;;;4964902;28;20057;-71
2022/05/03 13:18:44;;;;;;;2.00;0.50;;;7.80;47.70;;;;;;4966497;28;20154;-71
2022/05/03 13:21:10;;;;;;;0.50;0.38;;;7.90;47.60;;;;;;4971460;28;20034;-71
2022/05/03 13:23:35;;;;;;;0.50;0.45;;;7.90;47.60;;;;;;4947831;28;20102;-71
2022/05/03 13:26:01;;;;;;;2.30;0.45;;;7.90;48.10;;;;;;4949915;28;20138;-71
2022/05/03 13:28:28;;;;;;;1.10;0.60;;;8.00;48.30;;;;;;4963585;28;20023;-71
2022/05/03 13:30:55;;;;;;;0.55;0.40;;;8.10;48.40;;;;;;4947288;28;20030;-71
2022/05/03 13:33:20;;;;;;;2.20;0.47;;;8.10;47.50;;;;;;4966781;28;20023;-72
2022/05/03 13:41:14;;;;;;;1.30;0.43;;;8.10;47.80;;;;;;4964689;28;20034;-71
2022/05/03 13:43:40;;;;;;;0.40;0.40;;;8.00;46.10;;;;;;4964171;28;20015;-71
2022/05/03 13:46:06;;;;;;;0.68;0.50;;;8.00;46.70;;;;;;4964084;28;20042;-70
2022/05/03 13:48:31;;;;;;;2.50;0.50;;;7.90;47.20;;;;;;4965682;28;20145;-70
2022/05/03 13:50:57;;;;;;;15.82;1.13;;;7.70;46.80;;;;;;4968053;28;20030;-70
2022/05/03 13:53:23;;;;;;;2.38;0.88;;;7.60;47.30;;;;;;4967418;28;20024;-69
2022/05/03 13:55:48;;;;;;;1.10;0.68;;;7.70;48.40;;;;;;4957155;28;20745;-70
2022/05/03 13:58:14;;;;;;;7.50;0.45;;;7.70;47.70;;;;;;4973697;28;20467;-68
2022/05/03 14:00:40;;;;;;;0.40;0.40;;;7.60;48.00;;;;;;4973737;28;20022;-68
2022/05/03 14:03:12;;;;;;;0.30;0.30;;;7.50;48.20;;;;;;4970150;28;20023;-68
2022/05/03 14:05:37;;;;;;;1.17;0.55;;;7.20;48.40;;;;;;4961148;28;20027;-68
2022/05/03 14:08:03;;;;;;;9.18;1.02;;;7.10;48.80;;;;;;4972395;28;20030;-68
2022/05/03 14:10:30;;;;;;;0.47;0.47;;;7.20;49.30;;;;;;4963135;28;20106;-67
2022/05/03 14:12:56;;;;;;;0.93;0.55;;;7.30;49.80;;;;;;4968457;28;20094;-68
2022/05/03 14:15:22;;;;;;;1.55;0.55;;;7.30;49.90;;;;;;4973274;28;20489;-69
2022/05/03 14:17:47;;;;;;;0.63;0.60;;;7.40;49.90;;;;;;4973762;28;20015;-67
2022/05/03 14:20:13;;;;;;;2.10;0.60;;;7.40;49.50;;;;;;4970973;28;20598;-68
2022/05/03 14:22:40;;;;;;;1.83;0.55;;;7.50;49.30;;;;;;4961638;28;20031;-69
2022/05/03 14:25:09;;;;;;;2.22;0.57;;;7.50;49.50;;;;;;4954458;28;20030;-70
2022/05/03 14:27:36;;;;;;;0.57;0.57;;;7.40;48.10;;;;;;4971242;28;20081;-70
2022/05/03 14:30:07;;;;;;;1.42;0.70;;;7.40;48.40;;;;;;4973169;28;20478;-71
2022/05/03 14:32:33;;;;;;;0.60;0.40;;;7.30;47.50;;;;;;4962556;28;20391;-70
2022/05/03 14:34:59;;;;;;;0.73;0.50;;;7.30;47.80;;;;;;4964975;28;20097;-71
2022/05/03 14:37:25;;;;;;;0.70;0.70;;;7.20;48.60;;;;;;4967408;28;20041;-71
2022/05/03 14:39:51;;;;;;;0.43;0.43;;;7.20;49.30;;;;;;4964290;28;20222;-72
2022/05/03 14:42:19;;;;;;;3.15;0.60;;;7.10;50.00;;;;;;4964917;28;20042;-72
2022/05/03 14:44:45;;;;;;;0.40;0.40;;;7.00;50.50;;;;;;4962818;28;20509;-72
2022/05/03 14:47:11;;;;;;;7.00;0.80;;;7.10;50.70;;;;;;4964441;28;20031;-72
2022/05/03 14:49:37;;;;;;;1.23;0.60;;;7.10;50.60;;;;;;4965243;28;20030;-72
2022/05/03 14:52:08;;;;;;;0.52;0.45;;;7.10;50.90;;;;;;4964258;28;20024;-72